首页
METAR-TAF:

METAR-TAF

机场 :

Charlevoix Municipal Airport

Charlevoix, 密歇根州, 美国

纬度: 45-18-17N, 经度: 085-16-29W, 海拔: 204米

当前天气观测

该预报发布于27分钟前的22:17 UTC
风速9节,风向西南
温度 26°C
湿度 48%
气压 1017 hPa
能見度: 16.1公里
天空无云

METAR: KCVX 262217Z AUTO 23009KT 10SM CLR 26/14 A3003 RMK AO2 T02550141

时间: 18:44 (22:44 UTC)


TAF: 丢失

超过4000个机场的气象观测和天气预报(METAR&TAF报告)。

可查询的气象台以黄色和红色小点在地图上表示。

将鼠标移到小点上方,可查看气象台名称。

然后点击查看天气观测和预报。

如需切换地图:点击带黑十字的绿色按钮放大地图;点击带横线的绿色按钮缩小地图;或者点击绿色箭头查看邻近地区的地图。


METAR-TAF: